createdAt,value
2023-04-15T00:01:01.189Z,6.90
2023-04-15T00:03:30.172Z,6.60
2023-04-15T00:05:58.354Z,7.13
2023-04-15T00:08:25.743Z,7.70
2023-04-15T00:10:52.785Z,8.20
2023-04-15T00:13:20.458Z,7.65
2023-04-15T00:15:48.274Z,6.78
2023-04-15T00:18:14.866Z,7.35
2023-04-15T00:20:42.510Z,6.97
2023-04-15T00:23:09.311Z,7.38
2023-04-15T00:25:36.626Z,7.30
2023-04-15T00:28:03.812Z,7.10
2023-04-15T00:30:31.724Z,6.68
2023-04-15T00:32:58.417Z,6.38
2023-04-15T00:35:25.864Z,6.80
2023-04-15T00:37:52.533Z,6.72
2023-04-15T00:40:21.889Z,6.97
2023-04-15T00:42:49.739Z,7.30
2023-04-15T00:45:17.227Z,6.65
2023-04-15T00:47:44.399Z,6.70
2023-04-15T00:50:12.905Z,6.68
2023-04-15T00:52:40.515Z,6.50
2023-04-15T00:55:08.893Z,7.70
2023-04-15T00:57:36.112Z,7.88
2023-04-15T01:00:04.923Z,7.78
2023-04-15T01:02:32.696Z,8.00
2023-04-15T01:05:02.674Z,7.80
2023-04-15T01:07:29.325Z,8.38
2023-04-15T01:09:57.058Z,7.65
2023-04-15T01:12:26.107Z,7.63
2023-04-15T01:14:55.521Z,8.43
2023-04-15T01:17:22.886Z,7.65
2023-04-15T01:19:50.352Z,7.95
2023-04-15T01:22:17.563Z,9.70
2023-04-15T01:24:56.057Z,8.40
2023-04-15T01:27:23.165Z,8.48
2023-04-15T01:29:50.111Z,9.23
2023-04-15T01:32:17.377Z,8.27
2023-04-15T01:34:44.326Z,9.00
2023-04-15T01:37:12.080Z,8.77
2023-04-15T01:39:39.365Z,8.60
2023-04-15T01:42:07.129Z,9.10
2023-04-15T01:44:33.812Z,8.77
2023-04-15T01:47:01.165Z,9.10
2023-04-15T01:49:27.851Z,8.90
2023-04-15T01:51:55.264Z,9.85
2023-04-15T01:54:22.473Z,9.27
2023-04-15T01:56:51.500Z,9.98
2023-04-15T01:59:18.648Z,9.73
2023-04-15T02:01:46.813Z,9.65
2023-04-15T02:04:16.557Z,8.98
2023-04-15T02:06:44.474Z,9.07
2023-04-15T02:09:12.193Z,9.23
2023-04-15T02:11:39.686Z,9.07
2023-04-15T02:14:06.344Z,8.90
2023-04-15T02:16:34.275Z,9.80
2023-04-15T02:19:02.050Z,10.75
2023-04-15T02:21:30.912Z,9.55
2023-04-15T02:23:57.530Z,9.77
2023-04-15T02:26:25.867Z,11.13
2023-04-15T02:28:54.714Z,10.18
2023-04-15T02:31:22.007Z,10.52
2023-04-15T02:33:48.664Z,10.18
2023-04-15T02:36:15.898Z,9.88
2023-04-15T02:38:43.554Z,10.75
2023-04-15T02:41:11.592Z,10.43
2023-04-15T02:43:39.866Z,11.45
2023-04-15T02:46:08.719Z,10.88
2023-04-15T02:48:35.900Z,10.77
2023-04-15T02:51:14.957Z,11.02
2023-04-15T02:53:41.640Z,10.15
2023-04-15T02:56:09.173Z,10.82
2023-04-15T02:58:36.480Z,11.15
2023-04-15T03:01:03.917Z,11.40
2023-04-15T03:03:30.695Z,12.27
2023-04-15T03:05:58.276Z,11.05
2023-04-15T03:08:25.060Z,13.15
2023-04-15T03:10:53.786Z,11.88
2023-04-15T03:13:21.566Z,12.77
2023-04-15T03:15:48.751Z,12.55
2023-04-15T03:18:16.195Z,12.85
2023-04-15T03:20:43.024Z,12.80
2023-04-15T03:23:10.708Z,14.45
2023-04-15T03:25:37.570Z,14.60
2023-04-15T03:28:06.968Z,14.68
2023-04-15T03:30:33.656Z,14.90
2023-04-15T03:33:01.250Z,14.80
2023-04-15T03:35:28.306Z,14.50
2023-04-15T03:37:54.919Z,15.98
2023-04-15T03:40:22.614Z,16.50
2023-04-15T03:42:49.317Z,15.23
2023-04-15T03:45:16.741Z,16.23
2023-04-15T03:47:43.379Z,16.80
2023-04-15T03:50:11.193Z,17.83
2023-04-15T03:52:37.915Z,17.33
2023-04-15T03:55:05.526Z,17.73
2023-04-15T03:57:32.157Z,16.05
2023-04-15T03:59:59.084Z,18.38
2023-04-15T04:02:26.579Z,18.20
2023-04-15T04:04:53.693Z,17.60
2023-04-15T04:07:23.497Z,16.88
2023-04-15T04:09:50.119Z,16.95
2023-04-15T04:12:17.378Z,15.77
2023-04-15T04:14:44.234Z,17.42
2023-04-15T04:17:11.902Z,16.90
2023-04-15T04:19:38.633Z,16.38
2023-04-15T04:22:05.944Z,18.25
2023-04-15T04:24:32.676Z,16.92
2023-04-15T04:27:00.044Z,18.17
2023-04-15T04:29:26.908Z,17.88
2023-04-15T04:31:54.232Z,18.33
2023-04-15T04:34:21.052Z,18.05
2023-04-15T04:36:48.313Z,18.58
2023-04-15T04:39:14.955Z,18.75
2023-04-15T04:41:42.290Z,19.98
2023-04-15T04:44:09.204Z,18.30
2023-04-15T04:46:36.113Z,18.80
2023-04-15T04:49:02.964Z,20.45
2023-04-15T04:51:31.200Z,19.30
2023-04-15T04:53:57.927Z,18.20
2023-04-15T04:56:25.198Z,19.83
2023-04-15T04:58:51.847Z,18.95
2023-04-15T05:01:19.258Z,18.23
2023-04-15T05:03:46.002Z,18.70
2023-04-15T05:06:13.282Z,19.83
2023-04-15T05:08:41.191Z,17.98
2023-04-15T05:11:09.211Z,17.83
2023-04-15T05:13:38.557Z,17.88
2023-04-15T05:16:06.576Z,17.33
2023-04-15T05:18:33.417Z,16.95
2023-04-15T05:21:00.833Z,16.70
2023-04-15T05:23:27.614Z,17.77
2023-04-15T05:25:54.907Z,16.55
2023-04-15T05:28:21.754Z,17.83
2023-04-15T05:30:49.015Z,17.27
2023-04-15T05:33:15.732Z,16.55
2023-04-15T05:35:42.985Z,16.98
2023-04-15T05:38:09.649Z,15.82
2023-04-15T05:40:37.530Z,15.38
2023-04-15T05:43:04.128Z,13.98
2023-04-15T05:45:31.384Z,13.77
2023-04-15T05:47:58.040Z,13.80
2023-04-15T05:50:25.340Z,13.73
2023-04-15T05:52:52.026Z,14.18
2023-04-15T05:55:19.413Z,14.18
2023-04-15T05:57:46.337Z,13.77
2023-04-15T06:00:14.654Z,14.30
2023-04-15T06:02:41.770Z,14.27
2023-04-15T06:05:10.149Z,15.15
2023-04-15T06:07:37.568Z,17.05
2023-04-15T06:10:06.162Z,14.70
2023-04-15T06:12:33.250Z,15.40
2023-04-15T06:15:00.610Z,14.63
2023-04-15T06:17:27.560Z,14.70
2023-04-15T06:19:57.879Z,15.07
2023-04-15T06:22:24.819Z,13.90
2023-04-15T06:24:51.897Z,14.48
2023-04-15T06:27:19.462Z,14.45
2023-04-15T06:29:46.194Z,14.27
2023-04-15T06:32:14.559Z,14.15
2023-04-15T06:34:41.589Z,14.95
2023-04-15T06:37:09.931Z,14.32
2023-04-15T06:39:37.093Z,14.98
2023-04-15T06:42:04.736Z,15.52
2023-04-15T06:44:33.242Z,18.77
2023-04-15T06:47:01.412Z,15.52
2023-04-15T06:49:27.998Z,15.43
2023-04-15T06:51:55.282Z,15.73
2023-04-15T06:54:22.389Z,15.73
2023-04-15T06:56:50.204Z,15.65
2023-04-15T06:59:16.804Z,15.23
2023-04-15T07:01:44.165Z,16.65
2023-04-15T07:04:11.234Z,17.55
2023-04-15T07:06:39.021Z,15.52
2023-04-15T07:09:05.908Z,15.70
2023-04-15T07:11:33.413Z,15.88
2023-04-15T07:14:00.218Z,15.95
2023-04-15T07:16:29.384Z,15.95
2023-04-15T07:18:57.063Z,15.77
2023-04-15T07:21:25.416Z,14.73
2023-04-15T07:23:52.324Z,13.57
2023-04-15T07:26:19.560Z,13.73
2023-04-15T07:28:47.237Z,14.30
2023-04-15T07:31:15.118Z,14.27
2023-04-15T07:33:41.947Z,15.48
2023-04-15T07:36:09.646Z,14.55
2023-04-15T07:38:36.282Z,15.40
2023-04-15T07:41:03.711Z,14.20
2023-04-15T07:43:30.364Z,14.63
2023-04-15T07:45:57.771Z,13.65
2023-04-15T07:48:24.452Z,14.77
2023-04-15T07:50:51.834Z,14.40
2023-04-15T07:53:18.470Z,15.55
2023-04-15T07:55:45.510Z,15.32
2023-04-15T07:58:12.218Z,16.00
2023-04-15T08:00:39.647Z,17.48
2023-04-15T08:03:06.641Z,17.98
2023-04-15T08:05:34.307Z,17.17
2023-04-15T08:08:01.309Z,16.88
2023-04-15T08:10:29.867Z,17.52
2023-04-15T08:12:57.459Z,16.35
2023-04-15T08:15:24.969Z,15.32
2023-04-15T08:17:51.666Z,12.80
2023-04-15T08:20:19.234Z,13.88
2023-04-15T08:22:47.717Z,12.48
2023-04-15T08:25:15.041Z,11.35
2023-04-15T08:27:41.803Z,9.68
2023-04-15T08:30:09.757Z,9.55
2023-04-15T08:32:36.466Z,10.07
2023-04-15T08:35:03.927Z,8.75
2023-04-15T08:37:30.526Z,8.02
2023-04-15T08:39:57.478Z,8.57
2023-04-15T08:42:31.268Z,8.82
2023-04-15T08:45:02.109Z,8.70
2023-04-15T08:47:31.702Z,8.20
2023-04-15T08:50:00.053Z,6.35
2023-04-15T08:52:27.193Z,6.13
2023-04-15T08:55:01.186Z,5.90
2023-04-15T08:57:31.994Z,5.03
2023-04-15T08:59:59.301Z,6.18
2023-04-15T09:02:27.473Z,6.00
2023-04-15T09:04:55.130Z,5.55
2023-04-15T09:07:21.828Z,6.32
2023-04-15T09:09:49.033Z,5.05
2023-04-15T09:12:17.099Z,4.90
2023-04-15T09:14:47.703Z,4.53
2023-04-15T09:17:19.563Z,3.55
2023-04-15T09:19:46.917Z,2.83
2023-04-15T09:22:14.287Z,4.15
2023-04-15T09:24:43.549Z,5.28
2023-04-15T09:27:11.004Z,4.45
2023-04-15T09:29:38.198Z,5.57
2023-04-15T09:32:12.491Z,4.22
2023-04-15T09:34:40.032Z,4.57
2023-04-15T09:37:07.787Z,3.92
2023-04-15T09:39:50.112Z,4.07
2023-04-15T09:42:26.801Z,4.15
2023-04-15T09:44:54.577Z,4.35
2023-04-15T09:47:32.322Z,5.15
2023-04-15T09:50:01.103Z,4.97
2023-04-15T09:52:28.505Z,3.60
2023-04-15T09:54:59.643Z,3.75
2023-04-15T09:57:34.554Z,3.50
2023-04-15T10:00:01.981Z,4.03
2023-04-15T10:02:30.062Z,4.70
2023-04-15T10:04:57.990Z,5.03
2023-04-15T10:07:25.569Z,5.50
2023-04-15T10:09:54.010Z,4.25
2023-04-15T10:12:21.924Z,4.90
2023-04-15T10:14:56.970Z,4.75
2023-04-15T10:17:25.851Z,5.30
2023-04-15T10:19:55.734Z,5.32
2023-04-15T10:22:28.121Z,5.00
2023-04-15T10:24:57.001Z,6.13
2023-04-15T10:27:24.435Z,5.07
2023-04-15T10:29:51.982Z,4.72
2023-04-15T10:32:21.231Z,4.63
2023-04-15T10:34:50.543Z,4.60
2023-04-15T10:37:35.833Z,4.80
2023-04-15T10:40:31.625Z,4.63
2023-04-15T10:43:02.960Z,4.43
2023-04-15T10:45:35.700Z,4.28
2023-04-15T10:48:04.510Z,4.88
2023-04-15T10:50:32.564Z,4.63
2023-04-15T10:53:02.553Z,5.28
2023-04-15T10:55:33.522Z,5.63
2023-04-15T10:58:02.353Z,5.28
2023-04-15T11:00:30.936Z,6.40
2023-04-15T11:03:07.595Z,4.50
2023-04-15T11:05:52.492Z,4.53
2023-04-15T11:08:20.303Z,4.93
2023-04-15T11:10:46.853Z,5.43
2023-04-15T11:13:22.066Z,5.60
2023-04-15T11:15:49.488Z,5.00
2023-04-15T11:18:21.098Z,5.20
2023-04-15T11:20:54.371Z,5.50
2023-04-15T11:23:46.954Z,5.72
2023-04-15T11:26:13.950Z,6.22
2023-04-15T11:28:43.443Z,5.95
2023-04-15T11:31:12.898Z,6.15
2023-04-15T11:34:00.158Z,6.00
2023-04-15T11:36:28.488Z,5.85
2023-04-15T11:38:57.573Z,5.38
2023-04-15T11:41:24.420Z,5.10
2023-04-15T11:43:52.800Z,5.25
2023-04-15T11:46:19.559Z,5.03
2023-04-15T11:48:47.696Z,4.88
2023-04-15T11:51:14.688Z,3.65
2023-04-15T11:53:48.103Z,4.97
2023-04-15T11:56:25.950Z,4.65
2023-04-15T11:58:58.708Z,4.13
2023-04-15T12:01:39.695Z,4.95
2023-04-15T12:04:15.873Z,4.82
2023-04-15T12:06:42.919Z,4.95
2023-04-15T12:09:14.645Z,4.30
2023-04-15T12:11:51.762Z,4.30
2023-04-15T12:14:24.961Z,4.75
2023-04-15T12:19:46.463Z,4.22
2023-04-15T12:22:15.408Z,4.30
2023-04-15T12:24:44.499Z,3.95
2023-04-15T12:27:12.502Z,4.60
2023-04-15T12:29:42.170Z,4.28
2023-04-15T12:32:11.040Z,3.60
2023-04-15T12:34:49.782Z,3.80
2023-04-15T12:37:16.806Z,3.28
2023-04-15T12:39:49.126Z,3.55
2023-04-15T12:42:17.261Z,3.90
2023-04-15T12:44:44.717Z,3.60
2023-04-15T12:47:12.159Z,3.97
2023-04-15T12:49:40.166Z,4.22
2023-04-15T12:52:07.058Z,4.18
2023-04-15T12:54:34.878Z,4.05
2023-04-15T12:57:05.936Z,3.92
2023-04-15T12:59:34.577Z,3.85
2023-04-15T13:02:02.649Z,4.22
2023-04-15T13:04:33.408Z,3.58
2023-04-15T13:07:01.360Z,3.15
2023-04-15T13:09:28.685Z,3.88
2023-04-15T13:11:56.323Z,4.20
2023-04-15T13:14:23.552Z,4.47
2023-04-15T13:16:50.407Z,4.00
2023-04-15T13:19:17.607Z,4.13
2023-04-15T13:21:44.250Z,3.70
2023-04-15T13:24:11.791Z,3.35
2023-04-15T13:26:38.461Z,3.35
2023-04-15T13:29:05.338Z,2.95
2023-04-15T13:31:32.033Z,3.60
2023-04-15T13:33:59.036Z,2.85
2023-04-15T13:36:26.449Z,3.70
2023-04-15T13:38:53.487Z,3.53
2023-04-15T13:41:21.049Z,3.42
2023-04-15T13:43:47.969Z,4.03
2023-04-15T13:46:14.926Z,3.80
2023-04-15T13:48:42.042Z,4.35
2023-04-15T13:51:08.745Z,4.18
2023-04-15T13:53:38.458Z,3.88
2023-04-15T13:56:09.925Z,4.40
2023-04-15T13:58:38.480Z,4.13
2023-04-15T14:01:06.951Z,3.75
2023-04-15T14:03:36.535Z,4.10
2023-04-15T14:06:04.314Z,3.88
2023-04-15T14:08:31.892Z,3.35
2023-04-15T14:10:58.574Z,3.63
2023-04-15T14:13:25.478Z,3.58
2023-04-15T14:15:52.845Z,3.65
2023-04-15T14:18:19.495Z,4.20
2023-04-15T14:20:47.039Z,7.20
2023-04-15T14:23:14.053Z,10.27
2023-04-15T14:25:40.796Z,12.93
2023-04-15T14:28:07.724Z,6.85
2023-04-15T14:30:35.276Z,10.77
2023-04-15T14:33:02.594Z,28.42
2023-04-15T14:35:29.528Z,5.88
2023-04-15T14:37:56.858Z,4.25
2023-04-15T14:40:24.234Z,8.35
2023-04-15T14:42:50.902Z,11.77
2023-04-15T14:45:18.577Z,3.00
2023-04-15T14:47:45.308Z,3.28
2023-04-15T14:50:12.655Z,4.55
2023-04-15T14:52:39.470Z,31.45
2023-04-15T14:55:08.402Z,3.38
2023-04-15T14:57:35.089Z,5.53
2023-04-15T15:00:03.723Z,4.60
2023-04-15T15:02:39.324Z,3.90
2023-04-15T15:05:08.592Z,10.35
2023-04-15T15:07:37.462Z,77.35
2023-04-15T15:10:05.083Z,9.70
2023-04-15T15:12:32.938Z,6.68
2023-04-15T15:15:01.582Z,4.82
2023-04-15T15:17:30.048Z,7.13
2023-04-15T15:19:57.986Z,3.22
2023-04-15T15:22:25.979Z,4.13
2023-04-15T15:24:53.764Z,2.90
2023-04-15T15:27:20.688Z,3.08
2023-04-15T15:29:49.176Z,2.40
2023-04-15T15:32:15.915Z,4.00
2023-04-15T15:34:43.047Z,2.92
2023-04-15T15:37:09.670Z,4.30
2023-04-15T15:39:36.629Z,3.70
2023-04-15T15:42:03.383Z,2.85
2023-04-15T15:44:31.508Z,2.42
2023-04-15T15:46:59.458Z,2.50
2023-04-15T15:49:28.299Z,2.60
2023-04-15T15:51:56.115Z,4.38
2023-04-15T15:54:24.642Z,9.10
2023-04-15T15:56:51.251Z,9.32
2023-04-15T15:59:18.491Z,5.20
2023-04-15T16:01:45.373Z,14.68
2023-04-15T16:04:12.932Z,2.67
2023-04-15T16:06:40.610Z,6.75
2023-04-15T16:09:07.542Z,3.83
2023-04-15T16:11:34.186Z,2.90
2023-04-15T16:14:01.169Z,3.13
2023-04-15T16:16:29.786Z,4.28
2023-04-15T16:19:00.190Z,3.08
2023-04-15T16:21:27.251Z,4.07
2023-04-15T16:23:54.257Z,4.35
2023-04-15T16:26:21.621Z,2.72
2023-04-15T16:28:48.976Z,4.75
2023-04-15T16:31:15.574Z,3.42
2023-04-15T16:33:42.879Z,5.75
2023-04-15T16:36:09.497Z,3.58
2023-04-15T16:38:36.450Z,10.52
2023-04-15T16:41:03.107Z,3.75
2023-04-15T16:43:30.134Z,7.10
2023-04-15T16:45:56.734Z,6.88
2023-04-15T16:48:24.087Z,5.72
2023-04-15T16:50:50.690Z,6.20
2023-04-15T16:53:18.072Z,6.43
2023-04-15T16:55:44.690Z,12.75
2023-04-15T16:58:12.119Z,5.47
2023-04-15T17:00:38.774Z,3.95
2023-04-15T17:03:06.327Z,3.53
2023-04-15T17:05:33.615Z,3.35
2023-04-15T17:08:00.821Z,3.47
2023-04-15T17:10:27.887Z,3.08
2023-04-15T17:12:56.917Z,3.70
2023-04-15T17:15:23.862Z,11.63
2023-04-15T17:17:51.199Z,8.52
2023-04-15T17:20:17.964Z,9.18
2023-04-15T17:22:45.968Z,6.03
2023-04-15T17:25:13.972Z,4.93
2023-04-15T17:27:41.844Z,3.70
2023-04-15T17:30:08.974Z,4.43
2023-04-15T17:32:36.815Z,7.57
2023-04-15T17:35:06.167Z,4.72
2023-04-15T17:37:36.524Z,6.43
2023-04-15T17:40:03.675Z,4.65
2023-04-15T17:42:31.773Z,5.05
2023-04-15T17:44:58.351Z,10.05
2023-04-15T17:47:25.817Z,6.07
2023-04-15T17:49:52.497Z,7.35
2023-04-15T17:52:19.794Z,8.55
2023-04-15T17:54:46.715Z,6.90
2023-04-15T17:57:14.094Z,7.93
2023-04-15T17:59:44.894Z,7.15
2023-04-15T18:02:12.203Z,14.32
2023-04-15T18:04:39.759Z,6.95
2023-04-15T18:07:07.418Z,6.05
2023-04-15T18:09:34.043Z,9.57
2023-04-15T18:12:02.606Z,6.95
2023-04-15T18:14:34.752Z,6.55
2023-04-15T18:17:03.190Z,4.78
2023-04-15T18:19:31.882Z,9.02
2023-04-15T18:22:00.691Z,7.38
2023-04-15T18:24:27.761Z,7.32
2023-04-15T18:26:55.081Z,5.90
2023-04-15T18:29:21.793Z,7.78
2023-04-15T18:31:49.160Z,4.28
2023-04-15T18:34:16.064Z,3.88
2023-04-15T18:36:43.147Z,6.70
2023-04-15T18:39:10.492Z,6.15
2023-04-15T18:41:37.536Z,7.75
2023-04-15T18:44:04.128Z,6.43
2023-04-15T18:46:31.101Z,7.15
2023-04-15T18:48:57.784Z,8.23
2023-04-15T18:51:25.148Z,9.40
2023-04-15T18:53:51.840Z,7.60
2023-04-15T18:56:19.132Z,5.20
2023-04-15T18:59:08.864Z,5.20
2023-04-15T19:01:33.161Z,6.93
2023-04-15T19:03:59.933Z,8.52
2023-04-15T19:06:27.053Z,13.23
2023-04-15T19:08:54.075Z,25.73
2023-04-15T19:11:21.931Z,13.43
2023-04-15T19:13:48.923Z,9.02
2023-04-15T19:16:16.048Z,12.93
2023-04-15T19:18:43.067Z,12.55
2023-04-15T19:21:14.563Z,7.60
2023-04-15T19:23:42.875Z,7.82
2023-04-15T19:26:11.400Z,5.72
2023-04-15T19:28:38.058Z,17.85
2023-04-15T19:31:05.670Z,10.40
2023-04-15T19:33:32.412Z,16.02
2023-04-15T19:36:06.048Z,17.08
2023-04-15T19:38:35.740Z,8.90
2023-04-15T19:41:02.708Z,13.90
2023-04-15T19:43:29.669Z,12.80
2023-04-15T19:45:56.718Z,10.55
2023-04-15T19:48:25.515Z,9.05
2023-04-15T19:50:52.514Z,8.98
2023-04-15T19:53:19.130Z,13.63
2023-04-15T19:55:47.557Z,11.27
2023-04-15T19:58:14.448Z,9.85
2023-04-15T20:00:41.478Z,10.48
2023-04-15T20:03:08.247Z,14.55
2023-04-15T20:05:35.666Z,19.35
2023-04-15T20:08:03.121Z,8.68
2023-04-15T20:10:31.552Z,13.57
2023-04-15T20:12:58.229Z,9.98
2023-04-15T20:15:25.560Z,13.75
2023-04-15T20:17:52.302Z,15.55
2023-04-15T20:20:19.830Z,12.65
2023-04-15T20:22:46.730Z,19.90
2023-04-15T20:25:13.821Z,18.52
2023-04-15T20:27:40.576Z,20.73
2023-04-15T20:30:08.388Z,24.17
2023-04-15T20:32:35.708Z,15.50
2023-04-15T20:35:04.185Z,13.02
2023-04-15T20:37:33.118Z,11.65
2023-04-15T20:40:01.435Z,12.52
2023-04-15T20:42:31.845Z,11.40
2023-04-15T20:44:58.862Z,9.07
2023-04-15T20:47:25.838Z,8.35
2023-04-15T20:49:56.677Z,8.48
2023-04-15T20:52:23.574Z,11.27
2023-04-15T20:54:51.461Z,7.70
2023-04-15T20:57:18.156Z,10.75
2023-04-15T20:59:45.203Z,9.13
2023-04-15T21:02:12.029Z,18.83
2023-04-15T21:04:39.359Z,6.90
2023-04-15T21:07:06.098Z,11.05
2023-04-15T21:09:33.113Z,6.13
2023-04-15T21:12:01.071Z,9.93
2023-04-15T21:14:29.181Z,14.35
2023-04-15T21:16:59.549Z,18.83
2023-04-15T21:19:26.374Z,16.13
2023-04-15T21:21:53.721Z,16.20
2023-04-15T21:24:20.470Z,11.45
2023-04-15T21:26:47.779Z,15.77
2023-04-15T21:29:14.673Z,16.20
2023-04-15T21:31:42.251Z,5.60
2023-04-15T21:34:09.495Z,6.95
2023-04-15T21:36:38.076Z,5.75
2023-04-15T21:39:05.663Z,7.00
2023-04-15T21:41:33.145Z,5.97
2023-04-15T21:43:59.753Z,5.28
2023-04-15T21:46:32.741Z,7.05
2023-04-15T21:51:27.537Z,5.50
2023-04-15T21:53:54.943Z,6.20
2023-04-15T21:56:23.922Z,7.13
2023-04-15T21:58:51.158Z,6.78
2023-04-15T22:01:18.502Z,10.85
2023-04-15T22:03:45.427Z,8.10
2023-04-15T22:06:13.911Z,9.85
2023-04-15T22:08:54.925Z,8.77
2023-04-15T22:11:26.995Z,10.93
2023-04-15T22:13:54.711Z,9.85
2023-04-15T22:16:22.343Z,12.38
2023-04-15T22:18:49.108Z,24.30
2023-04-15T22:21:16.653Z,13.18
2023-04-15T22:23:47.310Z,16.25
2023-04-15T22:26:14.703Z,17.85
2023-04-15T22:28:41.827Z,13.27
2023-04-15T22:31:09.349Z,14.68
2023-04-15T22:33:36.233Z,17.98
2023-04-15T22:36:03.700Z,13.80
2023-04-15T22:38:31.029Z,13.75
2023-04-15T22:40:58.119Z,13.82
2023-04-15T22:43:25.788Z,12.35
2023-04-15T22:45:55.188Z,12.40
2023-04-15T22:48:22.578Z,8.57
2023-04-15T22:50:50.044Z,13.32
2023-04-15T22:53:17.673Z,8.93
2023-04-15T22:55:46.939Z,10.13
2023-04-15T22:58:14.620Z,11.45
2023-04-15T23:00:41.950Z,11.48
2023-04-15T23:03:08.823Z,8.02
2023-04-15T23:05:37.298Z,9.57
2023-04-15T23:08:04.261Z,10.75
2023-04-15T23:10:31.730Z,7.68
2023-04-15T23:12:58.352Z,8.40
2023-04-15T23:15:25.959Z,11.27
2023-04-15T23:17:52.608Z,8.38
2023-04-15T23:20:19.915Z,10.13
2023-04-15T23:22:46.631Z,10.55
2023-04-15T23:25:13.888Z,10.98
2023-04-15T23:27:40.575Z,12.77
2023-04-15T23:30:08.409Z,11.73
2023-04-15T23:32:35.018Z,11.57
2023-04-15T23:35:02.308Z,8.52
2023-04-15T23:37:31.288Z,14.30
2023-04-15T23:39:58.645Z,10.18
2023-04-15T23:42:25.820Z,11.50
2023-04-15T23:44:53.178Z,8.77
2023-04-15T23:47:19.802Z,8.73
2023-04-15T23:49:47.177Z,9.38
2023-04-15T23:52:13.809Z,8.73
2023-04-15T23:54:41.015Z,8.63
2023-04-15T23:57:07.631Z,8.90
2023-04-15T23:59:34.866Z,8.13
